sensor_id;sensor_type;location;lat;lon;timestamp;P1;durP1;ratioP1;P2;durP2;ratioP2
37049;SDS011;22958;51.232;6.826;2023-03-13T00:01:18;36.88;;;5.22;;
37049;SDS011;22958;51.232;6.826;2023-03-13T00:03:46;32.53;;;5.22;;
37049;SDS011;22958;51.232;6.826;2023-03-13T00:06:12;43.30;;;5.38;;
37049;SDS011;22958;51.232;6.826;2023-03-13T00:08:38;46.30;;;6.30;;
37049;SDS011;22958;51.232;6.826;2023-03-13T00:11:05;38.67;;;6.10;;
37049;SDS011;22958;51.232;6.826;2023-03-13T00:13:32;30.88;;;4.93;;
37049;SDS011;22958;51.232;6.826;2023-03-13T00:15:59;42.45;;;6.75;;
37049;SDS011;22958;51.232;6.826;2023-03-13T00:18:25;46.38;;;5.68;;
37049;SDS011;22958;51.232;6.826;2023-03-13T00:21:01;33.37;;;5.83;;
37049;SDS011;22958;51.232;6.826;2023-03-13T00:23:32;31.83;;;4.90;;
37049;SDS011;22958;51.232;6.826;2023-03-13T00:25:59;42.22;;;6.57;;
37049;SDS011;22958;51.232;6.826;2023-03-13T00:28:30;30.77;;;4.65;;
37049;SDS011;22958;51.232;6.826;2023-03-13T00:31:10;30.77;;;5.50;;
37049;SDS011;22958;51.232;6.826;2023-03-13T00:33:38;44.35;;;6.45;;
37049;SDS011;22958;51.232;6.826;2023-03-13T00:36:06;32.88;;;6.22;;
37049;SDS011;22958;51.232;6.826;2023-03-13T00:38:34;31.90;;;4.85;;
37049;SDS011;22958;51.232;6.826;2023-03-13T00:41:00;29.00;;;5.55;;
37049;SDS011;22958;51.232;6.826;2023-03-13T00:43:28;31.83;;;5.93;;
37049;SDS011;22958;51.232;6.826;2023-03-13T00:45:53;33.80;;;4.45;;
37049;SDS011;22958;51.232;6.826;2023-03-13T00:48:19;35.50;;;4.90;;
37049;SDS011;22958;51.232;6.826;2023-03-13T00:50:45;43.43;;;5.63;;
37049;SDS011;22958;51.232;6.826;2023-03-13T00:53:11;34.93;;;5.67;;
37049;SDS011;22958;51.232;6.826;2023-03-13T00:55:36;43.60;;;6.17;;
37049;SDS011;22958;51.232;6.826;2023-03-13T00:58:02;43.27;;;7.17;;
37049;SDS011;22958;51.232;6.826;2023-03-13T01:00:28;28.40;;;5.63;;
37049;SDS011;22958;51.232;6.826;2023-03-13T01:02:54;38.42;;;6.30;;
37049;SDS011;22958;51.232;6.826;2023-03-13T01:05:19;38.43;;;6.00;;
37049;SDS011;22958;51.232;6.826;2023-03-13T01:07:45;40.63;;;5.40;;
37049;SDS011;22958;51.232;6.826;2023-03-13T01:10:10;34.87;;;5.73;;
37049;SDS011;22958;51.232;6.826;2023-03-13T01:12:36;34.47;;;5.67;;
37049;SDS011;22958;51.232;6.826;2023-03-13T01:15:01;42.23;;;5.40;;
37049;SDS011;22958;51.232;6.826;2023-03-13T01:17:27;32.60;;;4.83;;
37049;SDS011;22958;51.232;6.826;2023-03-13T01:19:56;38.70;;;5.50;;
37049;SDS011;22958;51.232;6.826;2023-03-13T01:22:21;33.50;;;5.82;;
37049;SDS011;22958;51.232;6.826;2023-03-13T01:24:47;29.87;;;4.97;;
37049;SDS011;22958;51.232;6.826;2023-03-13T01:27:16;33.67;;;5.63;;
37049;SDS011;22958;51.232;6.826;2023-03-13T01:29:42;34.42;;;5.43;;
37049;SDS011;22958;51.232;6.826;2023-03-13T01:32:07;32.93;;;6.43;;
37049;SDS011;22958;51.232;6.826;2023-03-13T01:34:33;35.87;;;5.00;;
37049;SDS011;22958;51.232;6.826;2023-03-13T01:36:59;38.87;;;4.90;;
37049;SDS011;22958;51.232;6.826;2023-03-13T01:39:24;41.47;;;5.70;;
37049;SDS011;22958;51.232;6.826;2023-03-13T01:41:50;30.10;;;4.30;;
37049;SDS011;22958;51.232;6.826;2023-03-13T01:44:23;34.40;;;4.67;;
37049;SDS011;22958;51.232;6.826;2023-03-13T01:46:50;32.85;;;5.22;;
37049;SDS011;22958;51.232;6.826;2023-03-13T01:49:19;41.27;;;4.63;;
37049;SDS011;22958;51.232;6.826;2023-03-13T01:51:51;30.55;;;4.57;;
37049;SDS011;22958;51.232;6.826;2023-03-13T01:54:20;30.77;;;4.43;;
37049;SDS011;22958;51.232;6.826;2023-03-13T01:56:53;32.28;;;3.67;;
37049;SDS011;22958;51.232;6.826;2023-03-13T01:59:43;29.67;;;4.60;;
37049;SDS011;22958;51.232;6.826;2023-03-13T02:02:12;30.85;;;4.38;;
37049;SDS011;22958;51.232;6.826;2023-03-13T02:04:41;31.63;;;4.07;;
37049;SDS011;22958;51.232;6.826;2023-03-13T02:07:14;38.85;;;4.53;;
37049;SDS011;22958;51.232;6.826;2023-03-13T02:09:44;30.35;;;4.03;;
37049;SDS011;22958;51.232;6.826;2023-03-13T02:12:22;23.88;;;3.72;;
37049;SDS011;22958;51.232;6.826;2023-03-13T02:15:01;31.63;;;4.95;;
37049;SDS011;22958;51.232;6.826;2023-03-13T02:17:30;22.45;;;3.83;;
37049;SDS011;22958;51.232;6.826;2023-03-13T02:19:57;27.00;;;4.40;;
37049;SDS011;22958;51.232;6.826;2023-03-13T02:25:09;17.35;;;3.50;;
37049;SDS011;22958;51.232;6.826;2023-03-13T02:27:37;24.30;;;4.25;;
37049;SDS011;22958;51.232;6.826;2023-03-13T02:30:03;25.10;;;3.17;;
37049;SDS011;22958;51.232;6.826;2023-03-13T02:32:32;24.90;;;3.78;;
37049;SDS011;22958;51.232;6.826;2023-03-13T02:35:00;33.37;;;3.60;;
37049;SDS011;22958;51.232;6.826;2023-03-13T02:37:32;17.52;;;3.00;;
37049;SDS011;22958;51.232;6.826;2023-03-13T02:39:59;29.57;;;3.43;;
37049;SDS011;22958;51.232;6.826;2023-03-13T02:42:28;22.33;;;4.35;;
37049;SDS011;22958;51.232;6.826;2023-03-13T02:44:54;24.85;;;3.78;;
37049;SDS011;22958;51.232;6.826;2023-03-13T02:47:21;20.53;;;3.03;;
37049;SDS011;22958;51.232;6.826;2023-03-13T02:49:48;19.77;;;3.33;;
37049;SDS011;22958;51.232;6.826;2023-03-13T02:54:56;18.00;;;3.13;;
37049;SDS011;22958;51.232;6.826;2023-03-13T02:57:25;20.55;;;2.88;;
37049;SDS011;22958;51.232;6.826;2023-03-13T02:59:51;23.50;;;2.93;;
37049;SDS011;22958;51.232;6.826;2023-03-13T03:02:16;16.57;;;3.17;;
37049;SDS011;22958;51.232;6.826;2023-03-13T03:04:42;23.27;;;3.47;;
37049;SDS011;22958;51.232;6.826;2023-03-13T03:07:07;17.90;;;2.43;;
37049;SDS011;22958;51.232;6.826;2023-03-13T03:09:33;17.90;;;3.10;;
37049;SDS011;22958;51.232;6.826;2023-03-13T03:11:58;18.43;;;2.90;;
37049;SDS011;22958;51.232;6.826;2023-03-13T03:14:24;19.00;;;2.00;;
37049;SDS011;22958;51.232;6.826;2023-03-13T03:16:49;9.97;;;2.07;;
37049;SDS011;22958;51.232;6.826;2023-03-13T03:19:15;15.63;;;2.17;;
37049;SDS011;22958;51.232;6.826;2023-03-13T03:21:40;19.07;;;2.70;;
37049;SDS011;22958;51.232;6.826;2023-03-13T03:24:06;10.87;;;1.93;;
37049;SDS011;22958;51.232;6.826;2023-03-13T03:26:32;15.48;;;2.13;;
37049;SDS011;22958;51.232;6.826;2023-03-13T03:28:57;19.10;;;2.60;;
37049;SDS011;22958;51.232;6.826;2023-03-13T03:31:23;22.00;;;3.07;;
37049;SDS011;22958;51.232;6.826;2023-03-13T03:33:48;10.67;;;1.77;;
37049;SDS011;22958;51.232;6.826;2023-03-13T03:36:18;11.67;;;2.27;;
37049;SDS011;22958;51.232;6.826;2023-03-13T03:38:45;10.60;;;2.20;;
37049;SDS011;22958;51.232;6.826;2023-03-13T03:41:11;12.17;;;1.67;;
37049;SDS011;22958;51.232;6.826;2023-03-13T03:46:04;10.27;;;1.67;;
37049;SDS011;22958;51.232;6.826;2023-03-13T03:48:29;5.93;;;1.42;;
37049;SDS011;22958;51.232;6.826;2023-03-13T03:50:55;8.80;;;1.57;;
37049;SDS011;22958;51.232;6.826;2023-03-13T03:53:21;9.00;;;1.30;;
37049;SDS011;22958;51.232;6.826;2023-03-13T03:55:47;13.77;;;2.70;;
37049;SDS011;22958;51.232;6.826;2023-03-13T03:58:12;8.23;;;2.10;;
37049;SDS011;22958;51.232;6.826;2023-03-13T04:00:38;7.10;;;1.47;;
37049;SDS011;22958;51.232;6.826;2023-03-13T04:03:03;9.67;;;1.60;;
37049;SDS011;22958;51.232;6.826;2023-03-13T04:05:29;7.90;;;1.57;;
37049;SDS011;22958;51.232;6.826;2023-03-13T04:07:54;7.57;;;1.43;;
37049;SDS011;22958;51.232;6.826;2023-03-13T04:10:20;9.93;;;1.23;;
37049;SDS011;22958;51.232;6.826;2023-03-13T04:12:45;3.73;;;0.90;;
37049;SDS011;22958;51.232;6.826;2023-03-13T04:15:11;10.47;;;1.53;;
37049;SDS011;22958;51.232;6.826;2023-03-13T04:17:37;4.67;;;1.20;;
37049;SDS011;22958;51.232;6.826;2023-03-13T04:20:03;6.00;;;1.23;;
37049;SDS011;22958;51.232;6.826;2023-03-13T04:22:29;6.85;;;1.33;;
37049;SDS011;22958;51.232;6.826;2023-03-13T04:24:55;5.68;;;1.02;;
37049;SDS011;22958;51.232;6.826;2023-03-13T04:27:20;7.50;;;1.20;;
37049;SDS011;22958;51.232;6.826;2023-03-13T04:29:46;5.90;;;1.20;;
37049;SDS011;22958;51.232;6.826;2023-03-13T04:32:11;7.50;;;1.10;;
37049;SDS011;22958;51.232;6.826;2023-03-13T04:34:37;4.40;;;1.10;;
37049;SDS011;22958;51.232;6.826;2023-03-13T04:37:02;3.83;;;1.10;;
37049;SDS011;22958;51.232;6.826;2023-03-13T04:39:28;6.73;;;1.10;;
37049;SDS011;22958;51.232;6.826;2023-03-13T04:41:54;10.40;;;1.70;;
37049;SDS011;22958;51.232;6.826;2023-03-13T04:44:20;4.45;;;1.40;;
37049;SDS011;22958;51.232;6.826;2023-03-13T04:46:47;7.45;;;1.40;;
37049;SDS011;22958;51.232;6.826;2023-03-13T04:49:13;8.27;;;1.35;;
37049;SDS011;22958;51.232;6.826;2023-03-13T04:51:42;5.30;;;1.50;;
37049;SDS011;22958;51.232;6.826;2023-03-13T04:54:08;8.80;;;1.55;;
37049;SDS011;22958;51.232;6.826;2023-03-13T04:56:34;5.40;;;1.27;;
37049;SDS011;22958;51.232;6.826;2023-03-13T04:58:59;6.37;;;1.20;;
37049;SDS011;22958;51.232;6.826;2023-03-13T05:01:25;7.37;;;1.00;;
37049;SDS011;22958;51.232;6.826;2023-03-13T05:03:50;3.67;;;1.20;;
37049;SDS011;22958;51.232;6.826;2023-03-13T05:06:16;2.57;;;0.90;;
37049;SDS011;22958;51.232;6.826;2023-03-13T05:08:41;3.90;;;1.20;;
37049;SDS011;22958;51.232;6.826;2023-03-13T05:11:07;2.50;;;0.97;;
37049;SDS011;22958;51.232;6.826;2023-03-13T05:13:33;2.33;;;1.07;;
37049;SDS011;22958;51.232;6.826;2023-03-13T05:15:58;1.90;;;1.17;;
37049;SDS011;22958;51.232;6.826;2023-03-13T05:18:24;3.50;;;1.50;;
37049;SDS011;22958;51.232;6.826;2023-03-13T05:20:50;3.03;;;1.07;;
37049;SDS011;22958;51.232;6.826;2023-03-13T05:23:15;2.37;;;1.33;;
37049;SDS011;22958;51.232;6.826;2023-03-13T05:25:41;3.53;;;1.30;;
37049;SDS011;22958;51.232;6.826;2023-03-13T05:28:06;3.90;;;1.77;;
37049;SDS011;22958;51.232;6.826;2023-03-13T05:30:32;3.23;;;1.50;;
37049;SDS011;22958;51.232;6.826;2023-03-13T05:32:57;3.97;;;1.50;;
37049;SDS011;22958;51.232;6.826;2023-03-13T05:35:23;4.37;;;1.10;;
37049;SDS011;22958;51.232;6.826;2023-03-13T05:37:48;3.57;;;1.60;;
37049;SDS011;22958;51.232;6.826;2023-03-13T05:40:14;5.13;;;1.97;;
37049;SDS011;22958;51.232;6.826;2023-03-13T05:42:40;3.23;;;1.57;;
37049;SDS011;22958;51.232;6.826;2023-03-13T05:45:05;2.87;;;1.57;;
37049;SDS011;22958;51.232;6.826;2023-03-13T05:47:33;5.00;;;1.92;;
37049;SDS011;22958;51.232;6.826;2023-03-13T05:49:59;5.53;;;1.52;;
37049;SDS011;22958;51.232;6.826;2023-03-13T05:52:24;4.73;;;1.70;;
37049;SDS011;22958;51.232;6.826;2023-03-13T05:54:50;4.67;;;1.60;;
37049;SDS011;22958;51.232;6.826;2023-03-13T05:57:16;7.47;;;1.50;;
37049;SDS011;22958;51.232;6.826;2023-03-13T05:59:41;6.40;;;1.90;;
37049;SDS011;22958;51.232;6.826;2023-03-13T06:02:07;2.50;;;1.43;;
37049;SDS011;22958;51.232;6.826;2023-03-13T06:04:32;3.87;;;1.77;;
37049;SDS011;22958;51.232;6.826;2023-03-13T06:09:24;4.47;;;1.65;;
37049;SDS011;22958;51.232;6.826;2023-03-13T06:11:50;5.47;;;1.93;;
37049;SDS011;22958;51.232;6.826;2023-03-13T06:14:15;4.50;;;1.77;;
37049;SDS011;22958;51.232;6.826;2023-03-13T06:16:41;1.90;;;1.20;;
37049;SDS011;22958;51.232;6.826;2023-03-13T06:19:06;4.07;;;1.90;;
37049;SDS011;22958;51.232;6.826;2023-03-13T06:21:32;5.70;;;1.97;;
37049;SDS011;22958;51.232;6.826;2023-03-13T06:23:57;4.60;;;1.53;;
37049;SDS011;22958;51.232;6.826;2023-03-13T06:26:23;5.17;;;1.90;;
37049;SDS011;22958;51.232;6.826;2023-03-13T06:28:49;2.55;;;1.40;;
37049;SDS011;22958;51.232;6.826;2023-03-13T06:31:15;3.25;;;1.45;;
37049;SDS011;22958;51.232;6.826;2023-03-13T06:33:41;7.07;;;1.33;;
37049;SDS011;22958;51.232;6.826;2023-03-13T06:36:07;2.63;;;1.30;;
37049;SDS011;22958;51.232;6.826;2023-03-13T06:38:33;4.05;;;1.52;;
37049;SDS011;22958;51.232;6.826;2023-03-13T06:40:59;2.77;;;1.43;;
37049;SDS011;22958;51.232;6.826;2023-03-13T06:43:24;5.00;;;1.70;;
37049;SDS011;22958;51.232;6.826;2023-03-13T06:45:51;5.60;;;1.67;;
37049;SDS011;22958;51.232;6.826;2023-03-13T06:48:16;3.73;;;1.60;;
37049;SDS011;22958;51.232;6.826;2023-03-13T06:50:42;3.70;;;1.58;;
37049;SDS011;22958;51.232;6.826;2023-03-13T06:53:13;3.50;;;1.40;;
37049;SDS011;22958;51.232;6.826;2023-03-13T06:55:41;7.65;;;1.67;;
37049;SDS011;22958;51.232;6.826;2023-03-13T06:58:06;3.23;;;1.50;;
37049;SDS011;22958;51.232;6.826;2023-03-13T07:00:32;4.87;;;2.00;;
37049;SDS011;22958;51.232;6.826;2023-03-13T07:02:58;5.25;;;2.20;;
37049;SDS011;22958;51.232;6.826;2023-03-13T07:05:24;5.43;;;2.03;;
37049;SDS011;22958;51.232;6.826;2023-03-13T07:07:49;5.40;;;1.73;;
37049;SDS011;22958;51.232;6.826;2023-03-13T07:10:15;9.03;;;2.20;;
37049;SDS011;22958;51.232;6.826;2023-03-13T07:12:41;5.73;;;2.00;;
37049;SDS011;22958;51.232;6.826;2023-03-13T07:15:06;6.20;;;1.90;;
37049;SDS011;22958;51.232;6.826;2023-03-13T07:17:32;4.60;;;1.97;;
37049;SDS011;22958;51.232;6.826;2023-03-13T07:19:58;8.93;;;1.63;;
37049;SDS011;22958;51.232;6.826;2023-03-13T07:22:23;6.70;;;2.13;;
37049;SDS011;22958;51.232;6.826;2023-03-13T07:24:49;4.67;;;1.57;;
37049;SDS011;22958;51.232;6.826;2023-03-13T07:27:15;6.43;;;2.50;;
37049;SDS011;22958;51.232;6.826;2023-03-13T07:29:44;5.07;;;1.63;;
37049;SDS011;22958;51.232;6.826;2023-03-13T07:32:11;12.50;;;2.42;;
37049;SDS011;22958;51.232;6.826;2023-03-13T07:34:36;7.57;;;2.20;;
37049;SDS011;22958;51.232;6.826;2023-03-13T07:37:02;5.27;;;2.47;;
37049;SDS011;22958;51.232;6.826;2023-03-13T07:39:27;5.63;;;1.87;;
37049;SDS011;22958;51.232;6.826;2023-03-13T07:41:53;9.67;;;2.10;;
37049;SDS011;22958;51.232;6.826;2023-03-13T07:44:18;7.27;;;1.97;;
37049;SDS011;22958;51.232;6.826;2023-03-13T07:46:44;3.33;;;1.70;;
37049;SDS011;22958;51.232;6.826;2023-03-13T07:49:12;6.90;;;2.30;;
37049;SDS011;22958;51.232;6.826;2023-03-13T07:51:38;13.23;;;2.20;;
37049;SDS011;22958;51.232;6.826;2023-03-13T07:54:03;6.20;;;1.67;;
37049;SDS011;22958;51.232;6.826;2023-03-13T07:56:29;7.37;;;2.10;;
37049;SDS011;22958;51.232;6.826;2023-03-13T07:58:54;9.23;;;2.47;;
37049;SDS011;22958;51.232;6.826;2023-03-13T08:01:21;6.53;;;2.00;;
37049;SDS011;22958;51.232;6.826;2023-03-13T08:03:48;6.95;;;2.85;;
37049;SDS011;22958;51.232;6.826;2023-03-13T08:06:16;8.50;;;3.05;;
37049;SDS011;22958;51.232;6.826;2023-03-13T08:08:44;11.75;;;2.50;;
37049;SDS011;22958;51.232;6.826;2023-03-13T08:11:11;8.95;;;2.25;;
37049;SDS011;22958;51.232;6.826;2023-03-13T08:13:41;10.35;;;2.50;;
37049;SDS011;22958;51.232;6.826;2023-03-13T08:16:08;11.32;;;2.38;;
37049;SDS011;22958;51.232;6.826;2023-03-13T08:18:36;11.05;;;2.47;;
37049;SDS011;22958;51.232;6.826;2023-03-13T08:21:04;13.73;;;2.70;;
37049;SDS011;22958;51.232;6.826;2023-03-13T08:23:34;11.25;;;3.13;;
37049;SDS011;22958;51.232;6.826;2023-03-13T08:26:05;10.80;;;2.70;;
37049;SDS011;22958;51.232;6.826;2023-03-13T08:28:32;16.30;;;2.80;;
37049;SDS011;22958;51.232;6.826;2023-03-13T08:30:58;9.75;;;2.08;;
37049;SDS011;22958;51.232;6.826;2023-03-13T08:33:34;9.68;;;2.92;;
37049;SDS011;22958;51.232;6.826;2023-03-13T08:36:06;7.70;;;2.30;;
37049;SDS011;22958;51.232;6.826;2023-03-13T08:38:47;14.07;;;2.88;;
37049;SDS011;22958;51.232;6.826;2023-03-13T08:41:13;11.80;;;2.63;;
37049;SDS011;22958;51.232;6.826;2023-03-13T08:43:41;12.18;;;3.10;;
37049;SDS011;22958;51.232;6.826;2023-03-13T08:46:07;12.23;;;2.97;;
37049;SDS011;22958;51.232;6.826;2023-03-13T08:48:32;13.67;;;2.60;;
37049;SDS011;22958;51.232;6.826;2023-03-13T08:51:02;13.03;;;3.20;;
37049;SDS011;22958;51.232;6.826;2023-03-13T08:53:29;10.98;;;2.60;;
37049;SDS011;22958;51.232;6.826;2023-03-13T08:55:56;11.73;;;2.90;;
37049;SDS011;22958;51.232;6.826;2023-03-13T08:58:22;16.60;;;3.60;;
37049;SDS011;22958;51.232;6.826;2023-03-13T09:00:47;12.43;;;2.97;;
37049;SDS011;22958;51.232;6.826;2023-03-13T09:03:13;11.20;;;2.93;;
37049;SDS011;22958;51.232;6.826;2023-03-13T09:05:38;8.37;;;2.70;;
37049;SDS011;22958;51.232;6.826;2023-03-13T09:08:04;13.07;;;3.10;;
37049;SDS011;22958;51.232;6.826;2023-03-13T09:10:33;10.07;;;2.33;;
37049;SDS011;22958;51.232;6.826;2023-03-13T09:12:59;12.10;;;3.10;;
37049;SDS011;22958;51.232;6.826;2023-03-13T09:15:25;12.23;;;2.67;;
37049;SDS011;22958;51.232;6.826;2023-03-13T09:17:51;20.33;;;3.47;;
37049;SDS011;22958;51.232;6.826;2023-03-13T09:20:16;12.30;;;3.23;;
37049;SDS011;22958;51.232;6.826;2023-03-13T09:22:43;15.45;;;3.47;;
37049;SDS011;22958;51.232;6.826;2023-03-13T09:25:09;16.02;;;3.13;;
37049;SDS011;22958;51.232;6.826;2023-03-13T09:27:35;8.60;;;3.28;;
37049;SDS011;22958;51.232;6.826;2023-03-13T09:30:00;10.97;;;2.53;;
37049;SDS011;22958;51.232;6.826;2023-03-13T09:32:26;14.20;;;3.07;;
37049;SDS011;22958;51.232;6.826;2023-03-13T09:34:51;11.53;;;2.73;;
37049;SDS011;22958;51.232;6.826;2023-03-13T09:37:17;11.87;;;2.77;;
37049;SDS011;22958;51.232;6.826;2023-03-13T09:39:42;9.93;;;2.57;;
37049;SDS011;22958;51.232;6.826;2023-03-13T09:42:15;10.67;;;2.73;;
37049;SDS011;22958;51.232;6.826;2023-03-13T09:47:20;11.77;;;3.40;;
37049;SDS011;22958;51.232;6.826;2023-03-13T09:49:54;10.82;;;3.13;;
37049;SDS011;22958;51.232;6.826;2023-03-13T09:52:43;11.57;;;3.05;;
37049;SDS011;22958;51.232;6.826;2023-03-13T09:55:11;9.33;;;2.70;;
37049;SDS011;22958;51.232;6.826;2023-03-13T09:57:48;14.93;;;2.90;;
37049;SDS011;22958;51.232;6.826;2023-03-13T10:00:22;9.95;;;2.67;;
37049;SDS011;22958;51.232;6.826;2023-03-13T10:02:59;9.80;;;2.50;;
37049;SDS011;22958;51.232;6.826;2023-03-13T10:05:31;10.25;;;2.90;;
37049;SDS011;22958;51.232;6.826;2023-03-13T10:08:00;5.00;;;2.25;;
37049;SDS011;22958;51.232;6.826;2023-03-13T10:10:39;9.75;;;2.60;;
37049;SDS011;22958;51.232;6.826;2023-03-13T10:13:12;9.57;;;2.70;;
37049;SDS011;22958;51.232;6.826;2023-03-13T10:15:49;9.25;;;2.20;;
37049;SDS011;22958;51.232;6.826;2023-03-13T10:18:21;14.07;;;2.58;;
37049;SDS011;22958;51.232;6.826;2023-03-13T10:20:49;8.52;;;2.17;;
37049;SDS011;22958;51.232;6.826;2023-03-13T10:25:58;9.85;;;2.72;;
37049;SDS011;22958;51.232;6.826;2023-03-13T10:28:24;7.67;;;1.97;;
37049;SDS011;22958;51.232;6.826;2023-03-13T10:30:52;5.50;;;2.30;;
37049;SDS011;22958;51.232;6.826;2023-03-13T10:33:26;4.30;;;1.70;;
37049;SDS011;22958;51.232;6.826;2023-03-13T10:36:03;13.38;;;1.90;;
37049;SDS011;22958;51.232;6.826;2023-03-13T10:38:50;6.65;;;1.92;;
37049;SDS011;22958;51.232;6.826;2023-03-13T10:41:18;6.93;;;3.05;;
37049;SDS011;22958;51.232;6.826;2023-03-13T10:43:58;8.45;;;1.90;;
37049;SDS011;22958;51.232;6.826;2023-03-13T10:46:31;9.02;;;1.70;;
37049;SDS011;22958;51.232;6.826;2023-03-13T10:48:59;4.28;;;1.33;;
37049;SDS011;22958;51.232;6.826;2023-03-13T10:52:11;5.90;;;1.65;;
37049;SDS011;22958;51.232;6.826;2023-03-13T10:54:23;6.25;;;1.08;;
37049;SDS011;22958;51.232;6.826;2023-03-13T10:56:50;4.35;;;1.40;;
37049;SDS011;22958;51.232;6.826;2023-03-13T10:59:31;3.92;;;1.48;;
37049;SDS011;22958;51.232;6.826;2023-03-13T11:02:02;4.75;;;1.30;;
37049;SDS011;22958;51.232;6.826;2023-03-13T11:04:42;3.05;;;1.60;;
37049;SDS011;22958;51.232;6.826;2023-03-13T11:07:19;2.95;;;1.35;;
37049;SDS011;22958;51.232;6.826;2023-03-13T11:09:56;2.88;;;1.23;;
37049;SDS011;22958;51.232;6.826;2023-03-13T11:12:46;4.65;;;1.58;;
37049;SDS011;22958;51.232;6.826;2023-03-13T11:15:20;5.55;;;1.40;;
37049;SDS011;22958;51.232;6.826;2023-03-13T11:18:14;4.47;;;1.10;;
37049;SDS011;22958;51.232;6.826;2023-03-13T11:20:56;8.13;;;1.42;;
37049;SDS011;22958;51.232;6.826;2023-03-13T11:26:01;3.28;;;1.02;;
37049;SDS011;22958;51.232;6.826;2023-03-13T11:31:12;4.57;;;1.20;;
37049;SDS011;22958;51.232;6.826;2023-03-13T11:33:47;13.15;;;1.25;;
37049;SDS011;22958;51.232;6.826;2023-03-13T11:47:20;2.42;;;1.02;;
37049;SDS011;22958;51.232;6.826;2023-03-13T11:50:02;7.72;;;1.13;;
37049;SDS011;22958;51.232;6.826;2023-03-13T11:55:55;9.63;;;1.20;;
37049;SDS011;22958;51.232;6.826;2023-03-13T12:03:58;4.75;;;1.30;;
37049;SDS011;22958;51.232;6.826;2023-03-13T12:06:30;3.67;;;0.77;;
37049;SDS011;22958;51.232;6.826;2023-03-13T12:08:58;16.75;;;1.02;;
37049;SDS011;22958;51.232;6.826;2023-03-13T12:11:48;10.02;;;1.13;;
37049;SDS011;22958;51.232;6.826;2023-03-13T12:14:37;3.33;;;0.85;;
37049;SDS011;22958;51.232;6.826;2023-03-13T12:17:08;11.05;;;1.10;;
37049;SDS011;22958;51.232;6.826;2023-03-13T12:19:45;9.38;;;1.20;;
37049;SDS011;22958;51.232;6.826;2023-03-13T12:22:39;7.30;;;1.08;;
37049;SDS011;22958;51.232;6.826;2023-03-13T12:25:13;3.95;;;0.90;;
37049;SDS011;22958;51.232;6.826;2023-03-13T12:27:45;3.42;;;1.08;;
37049;SDS011;22958;51.232;6.826;2023-03-13T12:32:58;6.03;;;1.30;;
37049;SDS011;22958;51.232;6.826;2023-03-13T12:35:27;3.30;;;1.08;;
37049;SDS011;22958;51.232;6.826;2023-03-13T12:38:10;3.97;;;1.02;;
37049;SDS011;22958;51.232;6.826;2023-03-13T12:43:33;5.32;;;1.30;;
37049;SDS011;22958;51.232;6.826;2023-03-13T12:46:07;2.15;;;0.90;;
37049;SDS011;22958;51.232;6.826;2023-03-13T12:54:37;2.17;;;0.80;;
37049;SDS011;22958;51.232;6.826;2023-03-13T13:00:22;4.05;;;1.27;;
37049;SDS011;22958;51.232;6.826;2023-03-13T13:03:00;5.05;;;1.20;;
37049;SDS011;22958;51.232;6.826;2023-03-13T13:05:36;6.72;;;1.15;;
37049;SDS011;22958;51.232;6.826;2023-03-13T13:08:02;10.17;;;1.53;;
37049;SDS011;22958;51.232;6.826;2023-03-13T13:10:28;4.63;;;1.20;;
37049;SDS011;22958;51.232;6.826;2023-03-13T13:15:40;7.18;;;1.23;;
37049;SDS011;22958;51.232;6.826;2023-03-13T13:18:27;11.63;;;1.20;;
37049;SDS011;22958;51.232;6.826;2023-03-13T13:23:47;3.85;;;1.10;;
37049;SDS011;22958;51.232;6.826;2023-03-13T13:28:55;4.03;;;1.38;;
37049;SDS011;22958;51.232;6.826;2023-03-13T13:36:56;3.75;;;1.27;;
37049;SDS011;22958;51.232;6.826;2023-03-13T13:39:39;4.20;;;0.93;;
37049;SDS011;22958;51.232;6.826;2023-03-13T13:45:01;9.48;;;1.15;;
37049;SDS011;22958;51.232;6.826;2023-03-13T13:47:46;9.65;;;2.15;;
37049;SDS011;22958;51.232;6.826;2023-03-13T13:50:17;6.22;;;1.15;;
37049;SDS011;22958;51.232;6.826;2023-03-13T13:52:46;10.65;;;1.40;;
37049;SDS011;22958;51.232;6.826;2023-03-13T13:57:51;3.13;;;1.17;;
37049;SDS011;22958;51.232;6.826;2023-03-13T14:00:43;4.63;;;1.33;;
37049;SDS011;22958;51.232;6.826;2023-03-13T14:03:19;4.40;;;1.10;;
37049;SDS011;22958;51.232;6.826;2023-03-13T14:05:53;6.13;;;1.27;;
37049;SDS011;22958;51.232;6.826;2023-03-13T14:08:24;4.80;;;1.00;;
37049;SDS011;22958;51.232;6.826;2023-03-13T14:14:06;4.32;;;1.33;;
37049;SDS011;22958;51.232;6.826;2023-03-13T14:16:43;2.65;;;1.60;;
37049;SDS011;22958;51.232;6.826;2023-03-13T14:19:47;2.67;;;1.08;;
37049;SDS011;22958;51.232;6.826;2023-03-13T14:22:10;2.90;;;0.90;;
37049;SDS011;22958;51.232;6.826;2023-03-13T14:24:38;4.63;;;1.30;;
37049;SDS011;22958;51.232;6.826;2023-03-13T14:27:16;4.20;;;1.00;;
37049;SDS011;22958;51.232;6.826;2023-03-13T14:32:29;3.85;;;1.08;;
37049;SDS011;22958;51.232;6.826;2023-03-13T14:34:54;7.03;;;0.90;;
37049;SDS011;22958;51.232;6.826;2023-03-13T14:37:33;6.37;;;1.03;;
37049;SDS011;22958;51.232;6.826;2023-03-13T14:40:36;3.38;;;0.90;;
37049;SDS011;22958;51.232;6.826;2023-03-13T14:42:55;2.17;;;0.88;;
37049;SDS011;22958;51.232;6.826;2023-03-13T14:45:26;6.72;;;1.42;;
37049;SDS011;22958;51.232;6.826;2023-03-13T14:50:45;2.25;;;0.75;;
37049;SDS011;22958;51.232;6.826;2023-03-13T14:55:40;2.20;;;1.02;;
37049;SDS011;22958;51.232;6.826;2023-03-13T15:00:44;3.45;;;1.25;;
37049;SDS011;22958;51.232;6.826;2023-03-13T15:06:26;23.20;;;1.42;;
37049;SDS011;22958;51.232;6.826;2023-03-13T15:08:39;9.52;;;1.17;;
37049;SDS011;22958;51.232;6.826;2023-03-13T15:11:26;9.70;;;1.50;;
37049;SDS011;22958;51.232;6.826;2023-03-13T15:13:59;14.25;;;1.35;;
37049;SDS011;22958;51.232;6.826;2023-03-13T15:16:25;9.13;;;1.35;;
37049;SDS011;22958;51.232;6.826;2023-03-13T15:18:52;6.82;;;1.05;;
37049;SDS011;22958;51.232;6.826;2023-03-13T15:23:48;6.55;;;1.17;;
37049;SDS011;22958;51.232;6.826;2023-03-13T15:26:16;12.40;;;1.30;;
37049;SDS011;22958;51.232;6.826;2023-03-13T15:28:42;9.33;;;1.57;;
37049;SDS011;22958;51.232;6.826;2023-03-13T15:31:08;2.43;;;1.20;;
37049;SDS011;22958;51.232;6.826;2023-03-13T15:33:36;2.78;;;1.00;;
37049;SDS011;22958;51.232;6.826;2023-03-13T15:36:02;6.00;;;1.23;;
37049;SDS011;22958;51.232;6.826;2023-03-13T15:38:28;10.30;;;1.53;;
37049;SDS011;22958;51.232;6.826;2023-03-13T15:40:53;7.03;;;1.40;;
37049;SDS011;22958;51.232;6.826;2023-03-13T15:43:20;4.30;;;1.50;;
37049;SDS011;22958;51.232;6.826;2023-03-13T15:45:46;11.40;;;1.42;;
37049;SDS011;22958;51.232;6.826;2023-03-13T15:48:19;4.65;;;1.67;;
37049;SDS011;22958;51.232;6.826;2023-03-13T15:50:50;5.45;;;1.30;;
37049;SDS011;22958;51.232;6.826;2023-03-13T15:53:18;12.63;;;1.90;;
37049;SDS011;22958;51.232;6.826;2023-03-13T15:55:49;10.65;;;1.48;;
37049;SDS011;22958;51.232;6.826;2023-03-13T15:58:15;10.80;;;1.35;;
37049;SDS011;22958;51.232;6.826;2023-03-13T16:00:42;7.83;;;1.53;;
37049;SDS011;22958;51.232;6.826;2023-03-13T16:03:11;9.00;;;1.30;;
37049;SDS011;22958;51.232;6.826;2023-03-13T16:05:43;6.43;;;1.58;;
37049;SDS011;22958;51.232;6.826;2023-03-13T16:08:13;8.75;;;1.25;;
37049;SDS011;22958;51.232;6.826;2023-03-13T16:10:42;3.70;;;1.02;;
37049;SDS011;22958;51.232;6.826;2023-03-13T16:13:07;4.93;;;1.65;;
37049;SDS011;22958;51.232;6.826;2023-03-13T16:15:34;5.93;;;1.87;;
37049;SDS011;22958;51.232;6.826;2023-03-13T16:20:26;3.67;;;1.17;;
37049;SDS011;22958;51.232;6.826;2023-03-13T16:25:19;4.90;;;2.13;;
37049;SDS011;22958;51.232;6.826;2023-03-13T16:27:45;11.07;;;1.77;;
37049;SDS011;22958;51.232;6.826;2023-03-13T16:32:40;7.20;;;1.67;;
37049;SDS011;22958;51.232;6.826;2023-03-13T16:35:05;8.70;;;1.60;;